メインページ
METAR-TAF:

METAR-TAF

空港 :

ベレン, パラー州, ブラジル

緯度: 01-23S, 経度: 048-29W, 海抜: 16m

現時点の気象観測

当レポートは34分前の07:00(UTC)に作成
北東の風 5kt
気温 23°C
湿度 100%
気圧 1012 hPa
視程10km以上
高度2000ftの雲はほとんどない
高度10000ftの雲は散在している

METAR: SBBE 240700Z 05005KT 9999 FEW020 SCT100 23/23 Q1012

時間: 04:34 (07:34 UTC)

予報

当レポートは3時間34分前の04:00(UTC)に作成
予報は24日の 06時(UTC)から 25日の 06時(UTC)まで有効
東/北東の風 5kt
視程10km以上
1,500メートル以下は雲なし、積乱雲なし
24日の 09時(UTC)から 24日の 11時(UTC)まで徐々に
の風 8kt
視程10km以上
高度1000ftの雲はほとんどない
24日の 15時(UTC)から 24日の 17時(UTC)まで徐々に
の風 8kt
高度2000ftの千切れ雲あり
高度2500ftの雲はほとんどない, 塔状積雲.
24日の 21時(UTC)から 24日の 23時(UTC)まで徐々に
北/北東の風 8kt
高度2000ftの雲は散在している

TAF: SBBE 240400Z 2406/2506 06005KT CAVOK TN24/2407Z TX28/2418Z BECMG 2409/2411 09008KT 9999 FEW010 BECMG 2415/2417 36008KT BKN020 FEW025TCU BECMG 2421/2423 03008KT SCT020 RMK PFM

4,000以上の空港の気象観測と天気予報(METAR報とTAF報)

利用可能な観測所は地図上に黄色い丸と赤い丸で示す。

丸の上にカーソルを重ねると観測所名を参照できる。

次にクリックすると気象観測と天気予報を参照できる。

マップの切り替え:黒色「×」印の緑ボタンをクリックして拡大、「-」印の緑ボタンをクリックして縮小、緑色の三角印をクリックして隣りの地図に切り替え


METAR-TAF: